sensor_id;sensor_type;location;lat;lon;timestamp;temperature;humidity
18317;DHT22;9284;52.298;21.164;2022-10-28T03:18:19;8.20;99.90
18317;DHT22;9284;52.298;21.164;2022-10-28T03:20:47;8.20;99.90
18317;DHT22;9284;52.298;21.164;2022-10-28T03:23:15;8.20;99.90
18317;DHT22;9284;52.298;21.164;2022-10-28T03:25:44;8.20;99.90
18317;DHT22;9284;52.298;21.164;2022-10-28T03:28:12;8.20;99.90
18317;DHT22;9284;52.298;21.164;2022-10-28T03:30:41;8.20;99.90
18317;DHT22;9284;52.298;21.164;2022-10-28T03:33:09;8.20;99.90
18317;DHT22;9284;52.298;21.164;2022-10-28T03:35:39;8.20;99.90
18317;DHT22;9284;52.298;21.164;2022-10-28T03:38:07;8.20;99.90
18317;DHT22;9284;52.298;21.164;2022-10-28T03:40:36;8.20;99.90
18317;DHT22;9284;52.298;21.164;2022-10-28T03:43:04;8.20;99.90
18317;DHT22;9284;52.298;21.164;2022-10-28T03:45:32;8.20;99.90
18317;DHT22;9284;52.298;21.164;2022-10-28T03:48:00;8.20;99.90
18317;DHT22;9284;52.298;21.164;2022-10-28T03:50:29;8.20;99.90
18317;DHT22;9284;52.298;21.164;2022-10-28T03:52:58;8.20;99.90
18317;DHT22;9284;52.298;21.164;2022-10-28T03:55:27;8.20;99.90
18317;DHT22;9284;52.298;21.164;2022-10-28T03:57:55;8.20;99.90
18317;DHT22;9284;52.298;21.164;2022-10-28T04:00:27;8.20;99.90
18317;DHT22;9284;52.298;21.164;2022-10-28T04:02:55;8.20;99.90
18317;DHT22;9284;52.298;21.164;2022-10-28T04:05:24;8.20;99.90
18317;DHT22;9284;52.298;21.164;2022-10-28T04:07:52;8.10;99.90
18317;DHT22;9284;52.298;21.164;2022-10-28T04:10:22;8.10;99.90
18317;DHT22;9284;52.298;21.164;2022-10-28T04:12:50;8.10;99.90
18317;DHT22;9284;52.298;21.164;2022-10-28T04:15:19;8.10;99.90
18317;DHT22;9284;52.298;21.164;2022-10-28T04:17:47;8.10;99.90
18317;DHT22;9284;52.298;21.164;2022-10-28T04:20:15;8.10;99.90
18317;DHT22;9284;52.298;21.164;2022-10-28T04:22:44;8.10;99.90
18317;DHT22;9284;52.298;21.164;2022-10-28T04:25:12;8.10;99.90
18317;DHT22;9284;52.298;21.164;2022-10-28T04:27:42;8.10;99.90
18317;DHT22;9284;52.298;21.164;2022-10-28T04:30:11;8.10;99.90
18317;DHT22;9284;52.298;21.164;2022-10-28T04:32:40;8.10;99.90
18317;DHT22;9284;52.298;21.164;2022-10-28T04:35:12;8.10;99.90
18317;DHT22;9284;52.298;21.164;2022-10-28T04:37:41;8.10;99.90
18317;DHT22;9284;52.298;21.164;2022-10-28T04:40:10;8.10;99.90
18317;DHT22;9284;52.298;21.164;2022-10-28T04:42:38;8.10;99.90
18317;DHT22;9284;52.298;21.164;2022-10-28T04:45:09;8.10;99.90
18317;DHT22;9284;52.298;21.164;2022-10-28T04:47:37;8.10;99.90
18317;DHT22;9284;52.298;21.164;2022-10-28T04:50:06;8.10;99.90
18317;DHT22;9284;52.298;21.164;2022-10-28T04:52:35;8.00;99.90
18317;DHT22;9284;52.298;21.164;2022-10-28T04:55:04;8.00;99.90
18317;DHT22;9284;52.298;21.164;2022-10-28T04:57:32;8.00;99.90
18317;DHT22;9284;52.298;21.164;2022-10-28T05:00:00;8.00;99.90
18317;DHT22;9284;52.298;21.164;2022-10-28T05:02:30;8.00;99.90
18317;DHT22;9284;52.298;21.164;2022-10-28T05:04:58;8.00;99.90
18317;DHT22;9284;52.298;21.164;2022-10-28T05:07:29;8.00;99.90
18317;DHT22;9284;52.298;21.164;2022-10-28T05:09:58;8.00;99.90
18317;DHT22;9284;52.298;21.164;2022-10-28T05:12:26;8.00;99.90
18317;DHT22;9284;52.298;21.164;2022-10-28T05:14:54;8.00;99.90
18317;DHT22;9284;52.298;21.164;2022-10-28T05:17:22;8.00;99.90
18317;DHT22;9284;52.298;21.164;2022-10-28T05:19:52;8.00;99.90
18317;DHT22;9284;52.298;21.164;2022-10-28T05:22:20;8.00;99.90
18317;DHT22;9284;52.298;21.164;2022-10-28T05:24:49;8.00;99.90
18317;DHT22;9284;52.298;21.164;2022-10-28T05:27:17;8.00;99.90
18317;DHT22;9284;52.298;21.164;2022-10-28T05:29:46;8.00;99.90
18317;DHT22;9284;52.298;21.164;2022-10-28T05:32:14;8.00;99.90
18317;DHT22;9284;52.298;21.164;2022-10-28T05:34:43;8.00;99.90
18317;DHT22;9284;52.298;21.164;2022-10-28T05:37:16;8.00;99.90
18317;DHT22;9284;52.298;21.164;2022-10-28T05:39:45;8.00;99.90
18317;DHT22;9284;52.298;21.164;2022-10-28T05:42:13;8.00;99.90
18317;DHT22;9284;52.298;21.164;2022-10-28T05:44:42;8.00;99.90
18317;DHT22;9284;52.298;21.164;2022-10-28T05:47:10;8.00;99.90
18317;DHT22;9284;52.298;21.164;2022-10-28T05:49:39;8.00;99.90
18317;DHT22;9284;52.298;21.164;2022-10-28T05:52:08;8.00;99.90
18317;DHT22;9284;52.298;21.164;2022-10-28T05:54:39;8.00;99.90
18317;DHT22;9284;52.298;21.164;2022-10-28T05:57:08;8.00;99.90
18317;DHT22;9284;52.298;21.164;2022-10-28T05:59:36;8.00;99.90
18317;DHT22;9284;52.298;21.164;2022-10-28T06:02:10;8.10;99.90
18317;DHT22;9284;52.298;21.164;2022-10-28T06:04:45;8.10;99.90
18317;DHT22;9284;52.298;21.164;2022-10-28T06:07:13;8.10;99.90
18317;DHT22;9284;52.298;21.164;2022-10-28T06:09:46;8.10;99.90
18317;DHT22;9284;52.298;21.164;2022-10-28T06:12:18;8.10;99.90
18317;DHT22;9284;52.298;21.164;2022-10-28T06:14:47;8.20;99.90
18317;DHT22;9284;52.298;21.164;2022-10-28T06:17:17;8.20;99.90
18317;DHT22;9284;52.298;21.164;2022-10-28T06:19:46;8.30;99.90
18317;DHT22;9284;52.298;21.164;2022-10-28T06:22:21;8.30;99.90
18317;DHT22;9284;52.298;21.164;2022-10-28T06:24:55;8.30;99.90
18317;DHT22;9284;52.298;21.164;2022-10-28T06:27:37;8.30;99.90
18317;DHT22;9284;52.298;21.164;2022-10-28T06:30:11;8.40;99.90
18317;DHT22;9284;52.298;21.164;2022-10-28T06:32:40;8.40;99.90
18317;DHT22;9284;52.298;21.164;2022-10-28T06:35:10;8.40;99.90
18317;DHT22;9284;52.298;21.164;2022-10-28T06:37:40;8.50;99.90
18317;DHT22;9284;52.298;21.164;2022-10-28T06:40:14;8.50;99.90
18317;DHT22;9284;52.298;21.164;2022-10-28T06:42:47;8.60;99.90
18317;DHT22;9284;52.298;21.164;2022-10-28T06:45:26;8.60;99.90
18317;DHT22;9284;52.298;21.164;2022-10-28T06:48:00;8.70;99.90
18317;DHT22;9284;52.298;21.164;2022-10-28T06:50:35;8.80;99.90
18317;DHT22;9284;52.298;21.164;2022-10-28T06:53:12;8.90;99.90
18317;DHT22;9284;52.298;21.164;2022-10-28T06:55:51;8.90;99.90
18317;DHT22;9284;52.298;21.164;2022-10-28T06:58:20;9.00;99.90
18317;DHT22;9284;52.298;21.164;2022-10-28T07:01:00;9.10;99.90
18317;DHT22;9284;52.298;21.164;2022-10-28T07:03:36;9.30;99.90
18317;DHT22;9284;52.298;21.164;2022-10-28T07:06:19;9.40;99.90
18317;DHT22;9284;52.298;21.164;2022-10-28T07:08:50;9.50;99.90
18317;DHT22;9284;52.298;21.164;2022-10-28T07:11:46;9.60;99.90
18317;DHT22;9284;52.298;21.164;2022-10-28T07:14:28;9.70;99.90
18317;DHT22;9284;52.298;21.164;2022-10-28T07:17:04;9.70;99.90
18317;DHT22;9284;52.298;21.164;2022-10-28T07:19:35;9.90;99.90
18317;DHT22;9284;52.298;21.164;2022-10-28T07:22:06;9.90;99.90
18317;DHT22;9284;52.298;21.164;2022-10-28T07:24:41;10.00;99.90
18317;DHT22;9284;52.298;21.164;2022-10-28T07:27:13;10.10;99.90
18317;DHT22;9284;52.298;21.164;2022-10-28T07:29:43;10.10;99.90
18317;DHT22;9284;52.298;21.164;2022-10-28T07:32:12;10.20;99.90
18317;DHT22;9284;52.298;21.164;2022-10-28T07:34:42;10.20;99.90
18317;DHT22;9284;52.298;21.164;2022-10-28T07:37:19;10.30;99.90
18317;DHT22;9284;52.298;21.164;2022-10-28T07:39:50;10.30;99.90
18317;DHT22;9284;52.298;21.164;2022-10-28T07:42:27;10.40;99.90
18317;DHT22;9284;52.298;21.164;2022-10-28T07:44:58;10.50;99.90
18317;DHT22;9284;52.298;21.164;2022-10-28T07:47:28;10.60;99.90
18317;DHT22;9284;52.298;21.164;2022-10-28T07:49:58;10.60;99.90
18317;DHT22;9284;52.298;21.164;2022-10-28T07:52:30;10.70;99.90
18317;DHT22;9284;52.298;21.164;2022-10-28T07:54:59;10.80;99.90
18317;DHT22;9284;52.298;21.164;2022-10-28T07:57:29;10.70;99.90
18317;DHT22;9284;52.298;21.164;2022-10-28T07:59:58;10.70;99.90
18317;DHT22;9284;52.298;21.164;2022-10-28T08:02:26;10.80;99.90
18317;DHT22;9284;52.298;21.164;2022-10-28T08:04:55;10.90;99.90
18317;DHT22;9284;52.298;21.164;2022-10-28T08:07:25;11.00;99.90
18317;DHT22;9284;52.298;21.164;2022-10-28T08:10:07;11.10;99.90
18317;DHT22;9284;52.298;21.164;2022-10-28T08:12:38;11.20;99.90
18317;DHT22;9284;52.298;21.164;2022-10-28T08:15:08;11.20;99.90
18317;DHT22;9284;52.298;21.164;2022-10-28T08:17:38;11.30;99.90
18317;DHT22;9284;52.298;21.164;2022-10-28T08:20:08;11.30;99.90
18317;DHT22;9284;52.298;21.164;2022-10-28T08:22:39;11.50;99.90
18317;DHT22;9284;52.298;21.164;2022-10-28T08:25:08;11.40;99.90
18317;DHT22;9284;52.298;21.164;2022-10-28T08:27:38;11.60;99.90
18317;DHT22;9284;52.298;21.164;2022-10-28T08:30:09;11.60;99.90
18317;DHT22;9284;52.298;21.164;2022-10-28T08:32:38;11.80;99.90
18317;DHT22;9284;52.298;21.164;2022-10-28T08:35:09;11.80;99.90
18317;DHT22;9284;52.298;21.164;2022-10-28T08:37:37;11.80;99.90
18317;DHT22;9284;52.298;21.164;2022-10-28T08:40:10;11.70;99.90
18317;DHT22;9284;52.298;21.164;2022-10-28T08:42:46;11.70;99.90
18317;DHT22;9284;52.298;21.164;2022-10-28T08:45:33;11.70;99.90
18317;DHT22;9284;52.298;21.164;2022-10-28T08:48:14;11.70;99.90
18317;DHT22;9284;52.298;21.164;2022-10-28T08:50:48;11.90;99.90
18317;DHT22;9284;52.298;21.164;2022-10-28T08:53:24;11.90;99.90
18317;DHT22;9284;52.298;21.164;2022-10-28T08:55:58;12.00;99.90
18317;DHT22;9284;52.298;21.164;2022-10-28T08:58:37;12.00;99.90
18317;DHT22;9284;52.298;21.164;2022-10-28T09:01:12;12.20;99.90
18317;DHT22;9284;52.298;21.164;2022-10-28T09:03:44;12.30;99.90
18317;DHT22;9284;52.298;21.164;2022-10-28T09:06:15;12.40;99.90
18317;DHT22;9284;52.298;21.164;2022-10-28T09:08:45;12.50;66.10
18317;DHT22;9284;52.298;21.164;2022-10-28T09:11:38;12.60;1.00
18317;DHT22;9284;52.298;21.164;2022-10-28T09:14:32;12.70;1.00
18317;DHT22;9284;52.298;21.164;2022-10-28T09:17:13;12.80;1.00
18317;DHT22;9284;52.298;21.164;2022-10-28T09:19:47;12.80;1.00
18317;DHT22;9284;52.298;21.164;2022-10-28T09:22:22;13.00;1.00
18317;DHT22;9284;52.298;21.164;2022-10-28T09:24:55;13.00;1.00
18317;DHT22;9284;52.298;21.164;2022-10-28T09:27:50;13.20;1.00
18317;DHT22;9284;52.298;21.164;2022-10-28T09:30:35;13.20;1.00
18317;DHT22;9284;52.298;21.164;2022-10-28T09:33:23;13.30;1.00
18317;DHT22;9284;52.298;21.164;2022-10-28T09:35:58;13.30;1.00
18317;DHT22;9284;52.298;21.164;2022-10-28T09:38:28;13.30;1.00
18317;DHT22;9284;52.298;21.164;2022-10-28T09:41:01;13.40;1.00
18317;DHT22;9284;52.298;21.164;2022-10-28T09:43:31;13.40;99.90
18317;DHT22;9284;52.298;21.164;2022-10-28T09:46:06;13.60;99.90
18317;DHT22;9284;52.298;21.164;2022-10-28T09:48:40;13.70;99.90
18317;DHT22;9284;52.298;21.164;2022-10-28T09:51:18;13.80;99.90
18317;DHT22;9284;52.298;21.164;2022-10-28T09:53:50;13.90;1.00
18317;DHT22;9284;52.298;21.164;2022-10-28T09:56:21;13.90;1.00
18317;DHT22;9284;52.298;21.164;2022-10-28T09:58:49;13.90;1.00
18317;DHT22;9284;52.298;21.164;2022-10-28T10:01:21;14.10;99.90
18317;DHT22;9284;52.298;21.164;2022-10-28T10:03:50;14.10;99.90
18317;DHT22;9284;52.298;21.164;2022-10-28T10:06:24;14.10;1.00
18317;DHT22;9284;52.298;21.164;2022-10-28T10:08:54;14.00;99.90
18317;DHT22;9284;52.298;21.164;2022-10-28T10:11:30;13.90;1.00
18317;DHT22;9284;52.298;21.164;2022-10-28T10:14:04;13.90;1.00
18317;DHT22;9284;52.298;21.164;2022-10-28T10:16:40;13.90;1.00
18317;DHT22;9284;52.298;21.164;2022-10-28T10:19:10;14.00;1.00
18317;DHT22;9284;52.298;21.164;2022-10-28T10:21:47;14.10;1.00
18317;DHT22;9284;52.298;21.164;2022-10-28T10:24:25;14.30;1.00
18317;DHT22;9284;52.298;21.164;2022-10-28T10:26:56;14.40;99.90
18317;DHT22;9284;52.298;21.164;2022-10-28T10:29:27;14.60;1.00
18317;DHT22;9284;52.298;21.164;2022-10-28T10:32:15;14.70;99.90
18317;DHT22;9284;52.298;21.164;2022-10-28T10:34:53;14.90;1.00
18317;DHT22;9284;52.298;21.164;2022-10-28T10:37:23;15.00;1.00
18317;DHT22;9284;52.298;21.164;2022-10-28T10:40:22;15.10;1.00
18317;DHT22;9284;52.298;21.164;2022-10-28T10:42:51;15.30;99.90
18317;DHT22;9284;52.298;21.164;2022-10-28T10:45:39;15.30;99.90
18317;DHT22;9284;52.298;21.164;2022-10-28T10:48:14;15.50;99.90
18317;DHT22;9284;52.298;21.164;2022-10-28T10:50:46;15.80;99.90
18317;DHT22;9284;52.298;21.164;2022-10-28T10:53:20;16.20;1.00
18317;DHT22;9284;52.298;21.164;2022-10-28T10:55:53;16.60;1.00
18317;DHT22;9284;52.298;21.164;2022-10-28T10:58:24;16.80;1.00
18317;DHT22;9284;52.298;21.164;2022-10-28T11:00:58;17.30;1.00
18317;DHT22;9284;52.298;21.164;2022-10-28T11:03:30;17.50;1.00
18317;DHT22;9284;52.298;21.164;2022-10-28T11:06:02;17.50;1.00
18317;DHT22;9284;52.298;21.164;2022-10-28T11:08:54;17.80;99.90
18317;DHT22;9284;52.298;21.164;2022-10-28T11:11:31;17.80;99.90
18317;DHT22;9284;52.298;21.164;2022-10-28T11:14:05;17.60;1.00
18317;DHT22;9284;52.298;21.164;2022-10-28T11:16:47;17.60;99.90
18317;DHT22;9284;52.298;21.164;2022-10-28T11:19:22;17.50;1.00
18317;DHT22;9284;52.298;21.164;2022-10-28T11:22:00;17.20;99.90
18317;DHT22;9284;52.298;21.164;2022-10-28T11:25:06;17.10;1.00
18317;DHT22;9284;52.298;21.164;2022-10-28T11:27:49;17.10;1.00
18317;DHT22;9284;52.298;21.164;2022-10-28T11:30:32;17.20;99.90
18317;DHT22;9284;52.298;21.164;2022-10-28T11:33:07;17.30;1.00
18317;DHT22;9284;52.298;21.164;2022-10-28T11:36:05;17.30;99.90
18317;DHT22;9284;52.298;21.164;2022-10-28T11:39:10;17.50;99.90
18317;DHT22;9284;52.298;21.164;2022-10-28T11:41:50;17.50;75.40
18317;DHT22;9284;52.298;21.164;2022-10-28T11:44:30;17.50;99.90
18317;DHT22;9284;52.298;21.164;2022-10-28T11:47:10;17.50;99.90
18317;DHT22;9284;52.298;21.164;2022-10-28T11:50:03;17.50;99.90
18317;DHT22;9284;52.298;21.164;2022-10-28T11:52:48;17.40;99.90
18317;DHT22;9284;52.298;21.164;2022-10-28T11:55:27;17.60;99.90
18317;DHT22;9284;52.298;21.164;2022-10-28T11:58:08;17.40;1.00
18317;DHT22;9284;52.298;21.164;2022-10-28T12:00:55;17.30;1.00
18317;DHT22;9284;52.298;21.164;2022-10-28T12:06:42;17.30;99.90
18317;DHT22;9284;52.298;21.164;2022-10-28T12:09:22;17.30;1.00
18317;DHT22;9284;52.298;21.164;2022-10-28T12:12:02;17.30;1.00
18317;DHT22;9284;52.298;21.164;2022-10-28T12:14:41;17.30;1.00
18317;DHT22;9284;52.298;21.164;2022-10-28T12:17:16;17.30;1.00
18317;DHT22;9284;52.298;21.164;2022-10-28T12:19:52;17.60;1.00
18317;DHT22;9284;52.298;21.164;2022-10-28T12:22:26;17.40;99.90
18317;DHT22;9284;52.298;21.164;2022-10-28T12:25:12;17.40;99.90
18317;DHT22;9284;52.298;21.164;2022-10-28T12:27:45;17.30;1.00
18317;DHT22;9284;52.298;21.164;2022-10-28T12:30:25;17.40;99.90
18317;DHT22;9284;52.298;21.164;2022-10-28T12:32:58;17.50;99.90
18317;DHT22;9284;52.298;21.164;2022-10-28T12:35:30;17.40;99.90
18317;DHT22;9284;52.298;21.164;2022-10-28T12:38:05;17.50;99.90
18317;DHT22;9284;52.298;21.164;2022-10-28T12:40:39;17.60;99.90
18317;DHT22;9284;52.298;21.164;2022-10-28T12:43:15;17.70;1.00
18317;DHT22;9284;52.298;21.164;2022-10-28T12:45:47;17.80;99.90
18317;DHT22;9284;52.298;21.164;2022-10-28T12:48:22;17.80;99.90
18317;DHT22;9284;52.298;21.164;2022-10-28T12:51:00;17.80;99.90
18317;DHT22;9284;52.298;21.164;2022-10-28T12:53:34;17.80;99.90
18317;DHT22;9284;52.298;21.164;2022-10-28T12:56:10;17.80;48.30
18317;DHT22;9284;52.298;21.164;2022-10-28T12:58:48;17.80;99.90
18317;DHT22;9284;52.298;21.164;2022-10-28T13:01:22;17.90;99.90
18317;DHT22;9284;52.298;21.164;2022-10-28T13:03:52;17.80;99.90
18317;DHT22;9284;52.298;21.164;2022-10-28T13:06:48;17.80;99.90
18317;DHT22;9284;52.298;21.164;2022-10-28T13:09:33;17.80;1.00
18317;DHT22;9284;52.298;21.164;2022-10-28T13:12:24;17.80;64.80
18317;DHT22;9284;52.298;21.164;2022-10-28T13:15:37;17.80;99.90
18317;DHT22;9284;52.298;21.164;2022-10-28T13:21:20;17.80;1.00
18317;DHT22;9284;52.298;21.164;2022-10-28T13:23:58;17.80;99.90
18317;DHT22;9284;52.298;21.164;2022-10-28T13:26:33;17.80;1.00
18317;DHT22;9284;52.298;21.164;2022-10-28T13:29:32;17.80;1.00
18317;DHT22;9284;52.298;21.164;2022-10-28T13:32:58;17.80;1.00
18317;DHT22;9284;52.298;21.164;2022-10-28T13:35:38;17.60;1.00
18317;DHT22;9284;52.298;21.164;2022-10-28T13:38:42;17.60;91.30
18317;DHT22;9284;52.298;21.164;2022-10-28T13:41:41;17.50;99.90
18317;DHT22;9284;52.298;21.164;2022-10-28T13:44:27;17.50;1.00
18317;DHT22;9284;52.298;21.164;2022-10-28T13:47:25;17.60;99.90
18317;DHT22;9284;52.298;21.164;2022-10-28T13:50:21;17.50;82.60
18317;DHT22;9284;52.298;21.164;2022-10-28T13:56:30;17.30;15.00
18317;DHT22;9284;52.298;21.164;2022-10-28T13:59:02;17.20;1.00
18317;DHT22;9284;52.298;21.164;2022-10-28T14:01:55;17.20;99.90
18317;DHT22;9284;52.298;21.164;2022-10-28T14:04:57;17.10;99.90
18317;DHT22;9284;52.298;21.164;2022-10-28T14:07:27;17.00;36.80
18317;DHT22;9284;52.298;21.164;2022-10-28T14:10:10;16.90;1.00
18317;DHT22;9284;52.298;21.164;2022-10-28T14:12:47;16.80;1.00
18317;DHT22;9284;52.298;21.164;2022-10-28T14:15:22;16.70;17.30
18317;DHT22;9284;52.298;21.164;2022-10-28T14:17:55;16.60;1.00
18317;DHT22;9284;52.298;21.164;2022-10-28T14:20:54;16.40;1.00
18317;DHT22;9284;52.298;21.164;2022-10-28T14:30:15;15.80;1.00
18317;DHT22;9284;52.298;21.164;2022-10-28T14:32:57;15.70;23.60
18317;DHT22;9284;52.298;21.164;2022-10-28T14:35:33;15.50;99.90
18317;DHT22;9284;52.298;21.164;2022-10-28T14:38:17;15.50;1.00
18317;DHT22;9284;52.298;21.164;2022-10-28T14:41:02;15.40;1.00
18317;DHT22;9284;52.298;21.164;2022-10-28T14:43:41;15.40;1.00
18317;DHT22;9284;52.298;21.164;2022-10-28T14:46:29;15.40;1.00
18317;DHT22;9284;52.298;21.164;2022-10-28T14:49:01;15.40;1.00
18317;DHT22;9284;52.298;21.164;2022-10-28T14:51:37;15.30;1.00
18317;DHT22;9284;52.298;21.164;2022-10-28T14:54:12;15.30;1.00
18317;DHT22;9284;52.298;21.164;2022-10-28T14:56:42;15.30;1.00
18317;DHT22;9284;52.298;21.164;2022-10-28T14:59:25;15.30;1.00
18317;DHT22;9284;52.298;21.164;2022-10-28T15:02:00;15.20;1.00
18317;DHT22;9284;52.298;21.164;2022-10-28T15:04:30;15.10;1.00
18317;DHT22;9284;52.298;21.164;2022-10-28T15:06:59;15.10;45.20
18317;DHT22;9284;52.298;21.164;2022-10-28T15:09:28;15.00;97.80
18317;DHT22;9284;52.298;21.164;2022-10-28T15:11:59;14.90;99.90
18317;DHT22;9284;52.298;21.164;2022-10-28T15:14:31;14.90;99.90
18317;DHT22;9284;52.298;21.164;2022-10-28T15:17:08;14.80;99.90
18317;DHT22;9284;52.298;21.164;2022-10-28T15:19:39;14.80;99.90
18317;DHT22;9284;52.298;21.164;2022-10-28T15:22:17;14.80;99.90
18317;DHT22;9284;52.298;21.164;2022-10-28T15:25:02;14.70;99.90
18317;DHT22;9284;52.298;21.164;2022-10-28T15:27:33;14.70;99.90
18317;DHT22;9284;52.298;21.164;2022-10-28T15:30:02;14.70;99.90
18317;DHT22;9284;52.298;21.164;2022-10-28T15:32:32;14.80;99.90
18317;DHT22;9284;52.298;21.164;2022-10-28T15:35:38;14.70;99.90
18317;DHT22;9284;52.298;21.164;2022-10-28T15:38:32;14.70;99.90
18317;DHT22;9284;52.298;21.164;2022-10-28T15:41:37;14.70;99.90
18317;DHT22;9284;52.298;21.164;2022-10-28T15:44:22;14.70;99.90
18317;DHT22;9284;52.298;21.164;2022-10-28T15:46:51;14.60;99.90
18317;DHT22;9284;52.298;21.164;2022-10-28T15:49:32;14.50;99.90
18317;DHT22;9284;52.298;21.164;2022-10-28T15:52:31;14.50;99.90
18317;DHT22;9284;52.298;21.164;2022-10-28T15:55:01;14.40;99.90
18317;DHT22;9284;52.298;21.164;2022-10-28T15:57:44;14.30;99.90
18317;DHT22;9284;52.298;21.164;2022-10-28T16:00:21;14.20;99.90
18317;DHT22;9284;52.298;21.164;2022-10-28T16:02:52;14.20;99.90
18317;DHT22;9284;52.298;21.164;2022-10-28T16:05:52;14.20;99.90
18317;DHT22;9284;52.298;21.164;2022-10-28T16:08:26;14.20;99.90
18317;DHT22;9284;52.298;21.164;2022-10-28T16:10:57;14.30;99.90
18317;DHT22;9284;52.298;21.164;2022-10-28T16:13:29;14.20;99.90
18317;DHT22;9284;52.298;21.164;2022-10-28T16:16:05;14.30;99.90
18317;DHT22;9284;52.298;21.164;2022-10-28T16:18:39;14.30;99.90
18317;DHT22;9284;52.298;21.164;2022-10-28T16:21:15;14.20;99.90
18317;DHT22;9284;52.298;21.164;2022-10-28T16:23:47;14.30;99.90
18317;DHT22;9284;52.298;21.164;2022-10-28T16:26:16;14.20;99.90
18317;DHT22;9284;52.298;21.164;2022-10-28T16:28:44;14.30;99.90
18317;DHT22;9284;52.298;21.164;2022-10-28T16:31:14;14.40;99.90
18317;DHT22;9284;52.298;21.164;2022-10-28T16:33:44;14.40;99.90
18317;DHT22;9284;52.298;21.164;2022-10-28T16:36:12;14.40;99.90
18317;DHT22;9284;52.298;21.164;2022-10-28T16:38:40;14.50;99.90
18317;DHT22;9284;52.298;21.164;2022-10-28T16:41:14;14.50;99.90
18317;DHT22;9284;52.298;21.164;2022-10-28T16:43:43;14.60;99.90
18317;DHT22;9284;52.298;21.164;2022-10-28T16:46:13;14.70;99.90
18317;DHT22;9284;52.298;21.164;2022-10-28T16:48:42;14.70;99.90
18317;DHT22;9284;52.298;21.164;2022-10-28T16:51:13;14.70;99.90
18317;DHT22;9284;52.298;21.164;2022-10-28T16:53:42;14.70;99.90
18317;DHT22;9284;52.298;21.164;2022-10-28T16:56:15;14.80;99.90
18317;DHT22;9284;52.298;21.164;2022-10-28T16:58:43;14.70;99.90
18317;DHT22;9284;52.298;21.164;2022-10-28T17:01:14;14.70;99.90
18317;DHT22;9284;52.298;21.164;2022-10-28T17:03:45;14.70;99.90
18317;DHT22;9284;52.298;21.164;2022-10-28T17:06:13;14.60;99.90
18317;DHT22;9284;52.298;21.164;2022-10-28T17:08:42;14.70;99.90
18317;DHT22;9284;52.298;21.164;2022-10-28T17:11:31;14.60;99.90
18317;DHT22;9284;52.298;21.164;2022-10-28T17:14:00;14.60;99.90
18317;DHT22;9284;52.298;21.164;2022-10-28T17:16:28;14.60;99.90
18317;DHT22;9284;52.298;21.164;2022-10-28T17:18:56;14.60;99.90
18317;DHT22;9284;52.298;21.164;2022-10-28T17:21:25;14.50;99.90
18317;DHT22;9284;52.298;21.164;2022-10-28T17:23:53;14.50;99.90
18317;DHT22;9284;52.298;21.164;2022-10-28T17:26:21;14.40;99.90
18317;DHT22;9284;52.298;21.164;2022-10-28T17:28:51;14.30;99.90
18317;DHT22;9284;52.298;21.164;2022-10-28T17:31:19;14.20;99.90
18317;DHT22;9284;52.298;21.164;2022-10-28T17:33:54;14.10;99.90
18317;DHT22;9284;52.298;21.164;2022-10-28T17:36:23;14.00;99.90
18317;DHT22;9284;52.298;21.164;2022-10-28T17:38:51;13.90;99.90
18317;DHT22;9284;52.298;21.164;2022-10-28T17:41:19;13.80;99.90
18317;DHT22;9284;52.298;21.164;2022-10-28T17:43:52;13.80;99.90
18317;DHT22;9284;52.298;21.164;2022-10-28T17:46:21;13.70;99.90
18317;DHT22;9284;52.298;21.164;2022-10-28T17:48:49;13.60;99.90
18317;DHT22;9284;52.298;21.164;2022-10-28T17:51:18;13.50;99.90
18317;DHT22;9284;52.298;21.164;2022-10-28T17:53:52;13.50;99.90
18317;DHT22;9284;52.298;21.164;2022-10-28T17:56:21;13.40;99.90
18317;DHT22;9284;52.298;21.164;2022-10-28T17:58:52;13.40;99.90
18317;DHT22;9284;52.298;21.164;2022-10-28T18:01:21;13.30;99.90
18317;DHT22;9284;52.298;21.164;2022-10-28T18:03:49;13.30;99.90
18317;DHT22;9284;52.298;21.164;2022-10-28T18:06:18;13.30;99.90
18317;DHT22;9284;52.298;21.164;2022-10-28T18:08:46;13.30;99.90
18317;DHT22;9284;52.298;21.164;2022-10-28T18:11:16;13.30;99.90
18317;DHT22;9284;52.298;21.164;2022-10-28T18:13:47;13.30;99.90
18317;DHT22;9284;52.298;21.164;2022-10-28T18:16:20;13.30;99.90
18317;DHT22;9284;52.298;21.164;2022-10-28T18:18:48;13.30;99.90
18317;DHT22;9284;52.298;21.164;2022-10-28T18:21:17;13.30;99.90
18317;DHT22;9284;52.298;21.164;2022-10-28T18:23:49;13.30;99.90
18317;DHT22;9284;52.298;21.164;2022-10-28T18:26:19;13.20;99.90
18317;DHT22;9284;52.298;21.164;2022-10-28T18:28:47;13.20;99.90
18317;DHT22;9284;52.298;21.164;2022-10-28T18:31:18;13.20;99.90
18317;DHT22;9284;52.298;21.164;2022-10-28T18:33:47;13.10;99.90
18317;DHT22;9284;52.298;21.164;2022-10-28T18:36:17;13.00;99.90
18317;DHT22;9284;52.298;21.164;2022-10-28T18:38:45;13.00;99.90
18317;DHT22;9284;52.298;21.164;2022-10-28T18:41:15;13.00;99.90
18317;DHT22;9284;52.298;21.164;2022-10-28T18:43:44;12.90;99.90
18317;DHT22;9284;52.298;21.164;2022-10-28T18:46:13;12.90;99.90
18317;DHT22;9284;52.298;21.164;2022-10-28T18:48:43;12.80;99.90
18317;DHT22;9284;52.298;21.164;2022-10-28T18:51:12;12.80;99.90
18317;DHT22;9284;52.298;21.164;2022-10-28T18:53:42;12.90;99.90
18317;DHT22;9284;52.298;21.164;2022-10-28T18:56:12;12.90;99.90
18317;DHT22;9284;52.298;21.164;2022-10-28T18:58:41;12.90;99.90
18317;DHT22;9284;52.298;21.164;2022-10-28T19:01:11;13.00;99.90
18317;DHT22;9284;52.298;21.164;2022-10-28T19:03:40;13.00;99.90
18317;DHT22;9284;52.298;21.164;2022-10-28T19:06:11;13.00;99.90
18317;DHT22;9284;52.298;21.164;2022-10-28T19:08:41;13.00;99.90
18317;DHT22;9284;52.298;21.164;2022-10-28T19:11:11;13.00;99.90
18317;DHT22;9284;52.298;21.164;2022-10-28T19:13:41;12.90;99.90
18317;DHT22;9284;52.298;21.164;2022-10-28T19:16:10;13.00;99.90
18317;DHT22;9284;52.298;21.164;2022-10-28T19:18:43;13.10;99.90
18317;DHT22;9284;52.298;21.164;2022-10-28T19:21:14;13.10;99.90
18317;DHT22;9284;52.298;21.164;2022-10-28T19:23:43;13.20;99.90
18317;DHT22;9284;52.298;21.164;2022-10-28T19:26:12;13.20;99.90
18317;DHT22;9284;52.298;21.164;2022-10-28T19:28:41;13.20;99.90
18317;DHT22;9284;52.298;21.164;2022-10-28T19:31:11;13.20;99.90
18317;DHT22;9284;52.298;21.164;2022-10-28T19:33:40;13.30;99.90
18317;DHT22;9284;52.298;21.164;2022-10-28T19:36:14;13.20;99.90
18317;DHT22;9284;52.298;21.164;2022-10-28T19:38:45;13.20;99.90
18317;DHT22;9284;52.298;21.164;2022-10-28T19:41:16;13.20;99.90
18317;DHT22;9284;52.298;21.164;2022-10-28T19:43:45;13.10;99.90
18317;DHT22;9284;52.298;21.164;2022-10-28T19:46:18;13.20;99.90
18317;DHT22;9284;52.298;21.164;2022-10-28T19:48:49;13.10;99.90
18317;DHT22;9284;52.298;21.164;2022-10-28T19:51:21;13.10;99.90
18317;DHT22;9284;52.298;21.164;2022-10-28T19:53:51;13.10;99.90
18317;DHT22;9284;52.298;21.164;2022-10-28T19:56:20;13.00;99.90